Terminal Aerodrome Forecast
Issued by NWS Shreveport, LA

Home | Current Version | Previous Version | Text Only | Print | Product List | Glossary On
Versions: 1 2 3 4 5 6 7 8 9 10 11 12 13 14 15 16 17
000
FTUS44 KSHV 311700
TAFMLU
TAF
KMLU 311727Z 3118/0118 09006KT P6SM BKN250
     FM010300 15007KT P6SM BKN050
      TEMPO 0106/0110 -RA OVC030
     FM011000 16010KT P6SM -RA OVC020
      TEMPO 0114/0118 4SM SHRA BR OVC010=

USA.gov is the U.S. government's official web portal to all federal, state and local government web resources and services.